Time;durP1;ratioP1;P1;durP2;ratioP2;P2;SDS_P1;SDS_P2;PMS_P1;PMS_P2;Temp;Humidity;BMP_temperature;BMP_pressure;BME280_temperature;BME280_humidity;BME280_pressure;Samples;Min_cycle;Max_cycle;Signal;HPM_P1;HPM_P2
2022/08/07 00:01:27;;;;;;;2.70;2.40;;;;;;;16.55;77.79;99117.77;105726;1281;22572;-75
2022/08/07 00:03:53;;;;;;;3.50;2.50;;;;;;;16.58;77.32;99121.08;105586;1281;137888;-75
2022/08/07 00:06:21;;;;;;;2.80;2.50;;;;;;;16.60;77.39;99119.77;105899;1281;22537;-74
2022/08/07 00:08:48;;;;;;;5.50;2.50;;;;;;;16.61;77.30;99118.61;105823;1281;137717;-74
2022/08/07 00:11:15;;;;;;;3.00;2.70;;;;;;;16.61;77.30;99117.35;106020;1280;25303;-75
2022/08/07 00:13:44;;;;;;;3.40;2.30;;;;;;;16.62;77.25;99116.42;105822;1281;137685;-75
2022/08/07 00:16:11;;;;;;;;;;;;;;;16.61;77.00;99119.71;105994;1280;24264;-75
2022/08/07 00:18:38;;;;;;;3.40;2.50;;;;;;;16.59;77.07;99119.81;105845;1281;25232;-75
2022/08/07 00:21:08;;;;;;;5.10;2.50;;;;;;;16.58;77.29;99122.33;105573;1284;138003;-75
2022/08/07 00:23:38;;;;;;;2.70;2.30;;;;;;;16.61;77.27;99122.52;105683;1282;22566;-75
2022/08/07 00:26:07;;;;;;;3.70;2.50;;;;;;;16.62;77.00;99120.66;105428;1281;138168;-75
2022/08/07 00:28:35;;;;;;;3.70;2.30;;;;;;;16.63;76.88;99119.17;105903;1280;22570;-75
2022/08/07 00:31:07;;;;;;;3.40;2.20;;;;;;;16.64;77.22;99116.93;105871;1280;22692;-74
2022/08/07 00:33:35;;;;;;;3.90;2.60;;;;;;;16.64;77.30;99115.33;105812;1280;137190;-74
2022/08/07 00:36:04;;;;;;;4.30;2.60;;;;;;;16.62;77.22;99116.70;106090;1280;25341;-75
2022/08/07 00:38:32;;;;;;;4.30;2.60;;;;;;;16.61;77.35;99117.80;105736;1280;137500;-74
2022/08/07 00:41:00;;;;;;;3.50;2.30;;;;;;;16.61;77.38;99119.71;106203;1281;22566;-74
2022/08/07 00:43:27;;;;;;;2.60;2.40;;;;;;;16.60;77.38;99121.80;105933;1280;23236;-74
2022/08/07 00:45:54;;;;;;;3.70;2.30;;;;;;;16.61;77.46;99126.58;105649;1281;137298;-74
2022/08/07 00:48:21;;;;;;;4.70;2.50;;;;;;;16.60;77.64;99130.73;105676;1281;22564;-75
2022/08/07 00:50:48;;;;;;;2.70;2.50;;;;;;;16.60;77.93;99134.17;105780;1280;137452;-74
2022/08/07 00:53:15;;;;;;;2.90;2.50;;;;;;;16.57;77.65;99128.23;105909;1280;24276;-75
2022/08/07 00:55:56;;;;;;;6.50;2.50;;;;;;;16.46;77.52;99129.98;105912;1279;138978;-75
2022/08/07 00:58:23;;;;;;;3.20;2.30;;;;;;;16.34;77.91;99127.66;105850;1281;24320;-74
2022/08/07 01:00:50;;;;;;;2.80;2.50;;;;;;;16.25;78.31;99126.41;105758;1282;22547;-75
2022/08/07 01:03:20;;;;;;;3.10;2.50;;;;;;;16.24;78.94;99126.80;105591;1281;138156;-76
2022/08/07 01:06:02;;;;;;;3.70;2.90;;;;;;;16.26;79.06;99129.48;105774;1281;23333;-75
2022/08/07 01:08:29;;;;;;;4.80;2.70;;;;;;;16.30;79.09;99129.57;105868;1280;137727;-75
2022/08/07 01:10:56;;;;;;;3.90;2.40;;;;;;;16.31;78.98;99126.49;106044;1279;24333;-75
2022/08/07 01:13:23;;;;;;;4.10;2.60;;;;;;;16.32;78.78;99126.45;105866;1280;24230;-75
2022/08/07 01:15:51;;;;;;;3.30;2.50;;;;;;;16.36;78.94;99120.91;106146;1280;137341;-75
2022/08/07 01:18:19;;;;;;;4.40;2.60;;;;;;;16.42;79.09;99120.55;105768;1281;26701;-75
2022/08/07 01:20:56;;;;;;;4.70;2.60;;;;;;;16.48;78.89;99126.21;105719;1283;137709;-74
2022/08/07 01:23:23;;;;;;;3.30;2.60;;;;;;;16.50;78.65;99128.30;105795;1282;25352;-76
2022/08/07 01:25:51;;;;;;;3.70;2.20;;;;;;;16.50;78.50;99131.05;105721;1282;138964;-74
2022/08/07 01:28:32;;;;;;;3.00;2.40;;;;;;;16.50;78.69;99130.44;105847;1281;26075;-75
2022/08/07 01:31:00;;;;;;;5.40;2.80;;;;;;;16.54;79.05;99126.98;106127;1280;24428;-74
2022/08/07 01:33:28;;;;;;;2.80;2.50;;;;;;;16.56;78.88;99125.64;105712;1278;137319;-74
2022/08/07 01:35:59;;;;;;;2.80;2.60;;;;;;;16.61;78.87;99123.34;105793;1281;22557;-74
2022/08/07 01:38:29;;;;;;;4.30;2.70;;;;;;;16.62;78.91;99118.07;105659;1281;139023;-75
2022/08/07 01:41:05;;;;;;;3.00;2.70;;;;;;;16.65;78.85;99119.02;106096;1281;25498;-74
2022/08/07 01:43:33;;;;;;;3.00;2.50;;;;;;;16.67;79.02;99118.38;106180;1281;138644;-74
2022/08/07 01:46:01;;;;;;;6.50;2.60;;;;;;;16.69;78.91;99116.29;105843;1281;25249;-74
2022/08/07 01:48:28;;;;;;;2.60;2.40;;;;;;;16.70;78.82;99116.35;105934;1280;25476;-74
2022/08/07 01:51:08;;;;;;;5.20;2.70;;;;;;;16.71;78.90;99116.14;106173;1280;138347;-74
2022/08/07 01:53:38;;;;;;;3.90;3.20;;;;;;;16.72;78.95;99118.38;105843;1281;22618;-74
2022/08/07 01:56:32;;;;;;;3.00;2.70;;;;;;;16.75;79.18;99118.67;105760;1281;138139;-74
2022/08/07 01:59:16;;;;;;;3.80;2.40;;;;;;;16.76;78.98;99116.70;105977;1281;24314;-74
2022/08/07 02:01:51;;;;;;;3.40;2.60;;;;;;;16.76;78.93;99116.48;105762;1281;138616;-74
2022/08/07 02:04:26;;;;;;;2.80;2.60;;;;;;;16.77;78.93;99117.85;105854;1281;23920;-76
2022/08/07 02:06:56;;;;;;;3.30;2.90;;;;;;;16.76;78.93;99116.77;105892;1282;22977;-75
2022/08/07 02:09:28;;;;;;;3.20;2.90;;;;;;;16.77;78.96;99114.23;105672;1281;138182;-75
2022/08/07 02:11:57;;;;;;;4.80;3.00;;;;;;;16.78;78.99;99116.31;106299;1281;24259;-75
2022/08/07 02:14:27;;;;;;;3.50;2.50;;;;;;;16.79;79.02;99112.91;106381;1281;138378;-75
2022/08/07 02:16:55;;;;;;;3.20;2.60;;;;;;;16.81;78.96;99112.48;105905;1281;26431;-75
2022/08/07 02:19:23;;;;;;;3.60;2.70;;;;;;;16.81;78.79;99108.30;105866;1281;22684;-75
2022/08/07 02:21:53;;;;;;;3.70;2.90;;;;;;;16.80;78.92;99106.92;106193;1281;136950;-75
2022/08/07 02:24:21;;;;;;;4.90;2.60;;;;;;;16.80;79.02;99113.70;106074;1281;23228;-77
2022/08/07 02:26:49;;;;;;;5.30;2.50;;;;;;;16.80;78.84;99113.85;105626;1281;138041;-74
2022/08/07 02:29:33;;;;;;;2.80;2.60;;;;;;;16.79;78.83;99117.64;105937;1281;26144;-74
2022/08/07 02:32:03;;;;;;;7.70;2.80;;;;;;;16.79;78.64;99119.68;105818;1281;137620;-74
2022/08/07 02:34:31;;;;;;;4.00;2.80;;;;;;;16.78;78.72;99118.85;106093;1281;22539;-74
2022/08/07 02:37:02;;;;;;;4.50;3.10;;;;;;;16.77;78.67;99123.91;106250;1281;24337;-74
2022/08/07 02:39:32;;;;;;;3.60;3.10;;;;;;;16.75;78.40;99124.89;105817;1281;137680;-74
2022/08/07 02:42:01;;;;;;;2.30;2.20;;;;;;;16.72;78.29;99124.33;105944;1281;22583;-74
2022/08/07 02:44:30;;;;;;;4.50;2.70;;;;;;;16.70;78.02;99126.52;105717;1281;137799;-74
2022/08/07 02:47:00;;;;;;;4.60;3.00;;;;;;;16.68;77.99;99126.78;105790;1281;25514;-74
2022/08/07 02:49:43;;;;;;;6.60;2.90;;;;;;;16.66;78.00;99123.36;105926;1281;137516;-74
2022/08/07 02:52:16;;;;;;;5.10;3.10;;;;;;;16.64;77.99;99126.50;106002;1281;25366;-74
2022/08/07 02:54:44;;;;;;;4.90;3.00;;;;;;;16.62;78.24;99125.77;106142;1281;22556;-76
2022/08/07 02:57:13;;;;;;;6.10;2.60;;;;;;;16.62;78.28;99124.61;105955;1281;137938;-75
2022/08/07 02:59:44;;;;;;;3.70;2.70;;;;;;;16.63;77.98;99127.92;105946;1281;22564;-75
2022/08/07 03:02:14;;;;;;;6.50;2.90;;;;;;;16.61;78.05;99126.20;105923;1281;137592;-75
2022/08/07 03:04:44;;;;;;;4.60;3.10;;;;;;;16.61;78.13;99126.64;105810;1282;22570;-75
2022/08/07 03:07:11;;;;;;;4.40;2.90;;;;;;;16.61;77.95;99125.93;105871;1282;22573;-75
2022/08/07 03:09:41;;;;;;;3.70;2.90;;;;;;;16.59;77.97;99125.59;105935;1281;137242;-75
2022/08/07 03:12:09;;;;;;;3.30;2.50;;;;;;;16.58;78.00;99128.67;106405;1281;25224;-75
2022/08/07 03:14:38;;;;;;;;;;;;;;;16.57;77.81;99131.14;106001;1281;138015;-75
2022/08/07 03:17:20;;;;;;;5.20;3.00;;;;;;;16.52;78.00;99133.20;106078;1281;24355;-75
2022/08/07 03:19:48;;;;;;;3.30;3.00;;;;;;;16.49;78.11;99130.39;105787;1281;137484;-74
2022/08/07 03:22:16;;;;;;;4.60;2.80;;;;;;;16.49;78.23;99130.02;106298;1281;22582;-74
2022/08/07 03:24:43;;;;;;;4.10;2.50;;;;;;;16.49;78.34;99131.21;105983;1281;24382;-74
2022/08/07 03:27:10;;;;;;;3.70;2.60;;;;;;;16.51;78.28;99130.01;106028;1281;138175;-74
2022/08/07 03:29:49;;;;;;;4.30;3.10;;;;;;;16.52;78.27;99131.61;106360;1281;24316;-74
2022/08/07 03:32:23;;;;;;;3.10;2.70;;;;;;;16.53;78.21;99128.96;106162;1280;137216;-75
2022/08/07 03:34:56;;;;;;;3.20;2.90;;;;;;;16.51;78.12;99132.54;105960;1281;25248;-74
2022/08/07 03:37:25;;;;;;;3.80;2.70;;;;;;;16.49;78.15;99132.20;105928;1284;22714;-75
2022/08/07 03:39:53;;;;;;;5.10;2.90;;;;;;;16.46;78.34;99135.54;106184;1281;138311;-75
2022/08/07 03:42:20;;;;;;;3.70;2.90;;;;;;;16.46;78.37;99136.35;106021;1281;22541;-74
2022/08/07 03:44:49;;;;;;;6.00;3.00;;;;;;;16.41;78.35;99136.28;105874;1283;138151;-75
2022/08/07 03:47:18;;;;;;;4.60;3.20;;;;;;;16.38;78.47;99133.90;106044;1281;24230;-75
2022/08/07 03:49:47;;;;;;;4.40;3.00;;;;;;;16.37;78.44;99135.81;106299;1281;138144;-75
2022/08/07 03:52:17;;;;;;;3.70;3.30;;;;;;;16.34;78.64;99138.94;106380;1281;25479;-75
2022/08/07 03:54:44;;;;;;;5.40;2.90;;;;;;;16.33;78.43;99137.61;106057;1281;25353;-74
2022/08/07 03:57:13;;;;;;;5.60;2.90;;;;;;;16.33;78.71;99140.80;105814;1281;137534;-74
2022/08/07 03:59:41;;;;;;;4.70;3.40;;;;;;;16.34;78.67;99149.60;105471;1281;1255102;-74
2022/08/07 04:02:08;;;;;;;4.30;3.50;;;;;;;16.33;78.80;99147.56;105696;1281;137869;-74
2022/08/07 04:04:35;;;;;;;5.90;3.20;;;;;;;16.33;78.98;99146.41;105723;1281;22538;-75
2022/08/07 04:07:19;;;;;;;5.00;3.50;;;;;;;16.37;79.16;99148.14;106291;1281;25381;-75
2022/08/07 04:09:48;;;;;;;4.00;3.20;;;;;;;16.38;78.59;99152.49;106150;1281;137426;-75
2022/08/07 04:12:30;;;;;;;4.40;3.50;;;;;;;16.40;78.73;99155.19;105867;1281;25441;-75
2022/08/07 04:14:58;;;;;;;3.80;3.40;;;;;;;16.43;78.54;99154.33;106138;1281;138186;-75
2022/08/07 04:17:25;;;;;;;3.90;3.50;;;;;;;16.44;78.59;99150.71;105880;1281;22585;-74
2022/08/07 04:19:54;;;;;;;4.30;3.10;;;;;;;16.46;78.43;99154.94;105859;1281;137734;-75
2022/08/07 04:22:25;;;;;;;3.90;3.10;;;;;;;16.46;78.27;99150.48;105759;1281;31385;-75
2022/08/07 04:24:53;;;;;;;6.20;3.30;;;;;;;16.45;78.18;99144.94;106119;1282;25061;-75
2022/08/07 04:27:20;;;;;;;5.10;3.60;;;;;;;16.43;78.22;99147.73;105652;1283;137586;-74
2022/08/07 04:29:48;;;;;;;3.60;3.30;;;;;;;16.41;78.21;99150.46;105785;1284;24241;-75
2022/08/07 04:32:16;;;;;;;4.30;3.90;;;;;;;16.42;78.52;99150.47;106007;1281;137418;-75
2022/08/07 04:34:43;;;;;;;5.60;3.70;;;;;;;16.44;78.72;99148.56;105849;1281;22875;-74
2022/08/07 04:37:10;;;;;;;4.20;3.10;;;;;;;16.46;78.46;99151.21;105903;1281;23031;-75
2022/08/07 04:39:40;;;;;;;3.70;3.20;;;;;;;16.47;78.58;99152.77;106003;1281;138030;-75
2022/08/07 04:42:07;;;;;;;4.40;3.70;;;;;;;16.52;78.63;99154.20;106002;1284;22554;-74
2022/08/07 04:44:35;;;;;;;5.10;3.20;;;;;;;16.55;78.31;99155.48;105717;1281;137907;-75
2022/08/07 04:47:10;;;;;;;5.20;3.50;;;;;;;16.57;78.27;99155.88;105723;1281;22543;-75
2022/08/07 04:49:56;;;;;;;6.10;3.60;;;;;;;16.57;78.13;99158.03;105705;1281;137938;-74
2022/08/07 04:52:37;;;;;;;2.80;2.50;;;;;;;16.56;78.13;99165.06;105887;1281;25358;-75
2022/08/07 04:55:24;;;;;;;4.00;2.80;;;;;;;16.58;78.03;99166.40;105905;1280;24426;-75
2022/08/07 04:58:07;;;;;;;3.60;3.10;;;;;;;16.58;77.93;99165.46;105847;1281;136999;-75
2022/08/07 05:00:46;;;;;;;6.00;3.90;;;;;;;16.57;77.80;99168.48;106007;1281;24322;-75
2022/08/07 05:03:22;;;;;;;;;;;;;;;16.58;77.95;99174.75;105811;1281;137336;-75
2022/08/07 05:06:23;;;;;;;5.20;3.10;;;;;;;16.57;77.98;99177.89;106181;1282;23322;-75
2022/08/07 05:09:47;;;;;;;3.90;2.60;;;;;;;16.55;77.96;99178.19;105654;1284;138078;-75
2022/08/07 05:12:37;;;;;;;4.50;3.20;;;;;;;16.54;78.10;99181.50;105647;1281;22551;-74
2022/08/07 05:15:16;;;;;;;3.90;3.10;;;;;;;16.51;78.10;99181.21;105984;1281;137312;-75
2022/08/07 05:18:04;;;;;;;3.80;3.00;;;;;;;16.46;78.36;99180.08;105658;1281;25251;-74
2022/08/07 05:20:38;;;;;;;4.80;3.00;;;;;;;16.44;78.04;99179.25;105976;1281;137978;-75
2022/08/07 05:23:25;;;;;;;3.40;2.80;;;;;;;16.41;78.10;99181.59;105778;1281;24000;-74
2022/08/07 05:25:54;;;;;;;5.80;3.10;;;;;;;16.41;78.33;99187.08;105555;1281;137785;-74
2022/08/07 05:28:22;;;;;;;3.20;2.90;;;;;;;16.41;78.48;99186.70;106028;1281;26537;-74
2022/08/07 05:30:52;;;;;;;3.00;2.60;;;;;;;16.40;78.44;99182.23;106122;1281;25405;-74
2022/08/07 05:33:21;;;;;;;2.90;2.50;;;;;;;16.41;78.60;99182.47;106083;1281;138829;-74
2022/08/07 05:35:50;;;;;;;3.80;2.60;;;;;;;16.45;78.59;99182.55;105876;1283;22599;-74
2022/08/07 05:38:21;;;;;;;4.60;3.20;;;;;;;16.52;78.67;99182.80;105768;1281;137628;-74
2022/08/07 05:40:50;;;;;;;5.40;3.10;;;;;;;16.61;78.66;99192.70;106235;1281;25481;-75
2022/08/07 05:43:18;;;;;;;5.30;3.00;;;;;;;16.65;78.28;99193.17;106186;1281;22594;-74
2022/08/07 05:45:47;;;;;;;;;;;;;;;16.66;78.48;99196.09;105912;1283;137037;-74
2022/08/07 05:48:15;;;;;;;4.30;2.60;;;;;;;16.70;78.21;99195.44;105904;1282;25445;-74
2022/08/07 05:50:46;;;;;;;3.80;2.50;;;;;;;16.74;78.04;99193.70;105836;1281;137946;-74
2022/08/07 05:53:15;;;;;;;7.40;3.10;;;;;;;16.79;78.08;99196.59;105850;1281;24292;-74
2022/08/07 05:55:42;;;;;;;5.60;3.10;;;;;;;16.86;78.18;99195.11;106079;1281;137547;-74
2022/08/07 05:58:11;;;;;;;5.20;3.50;;;;;;;16.92;78.05;99197.02;105987;1281;26501;-75
2022/08/07 06:00:39;;;;;;;4.30;3.40;;;;;;;16.96;77.95;99202.20;105836;1281;24298;-75
2022/08/07 06:03:09;;;;;;;2.60;2.40;;;;;;;17.01;77.63;99200.56;106030;1280;139887;-74
2022/08/07 06:05:37;;;;;;;4.10;2.80;;;;;;;17.08;77.41;99202.58;105887;1281;22543;-75
2022/08/07 06:08:08;;;;;;;5.20;3.30;;;;;;;17.12;77.28;99202.33;106071;1281;137488;-75
2022/08/07 06:10:50;;;;;;;5.50;3.00;;;;;;;17.16;77.32;99202.49;105912;1281;24398;-75
2022/08/07 06:13:17;;;;;;;5.00;3.30;;;;;;;17.20;77.19;99203.21;105935;1280;22632;-76
2022/08/07 06:16:02;;;;;;;4.50;2.80;;;;;;;17.23;77.15;99204.05;105826;1281;25252;-75
2022/08/07 06:18:31;;;;;;;3.30;2.70;;;;;;;17.25;77.00;99203.13;105793;1281;25081;-75
2022/08/07 06:21:03;;;;;;;6.20;2.70;;;;;;;17.26;76.79;99203.20;105634;1282;137660;-75
2022/08/07 06:23:31;;;;;;;3.60;2.90;;;;;;;17.31;76.76;99203.53;105826;1281;24324;-75
2022/08/07 06:25:59;;;;;;;7.90;2.80;;;;;;;17.32;76.27;99202.28;105988;1281;137287;-73
2022/08/07 06:28:27;;;;;;;4.70;2.80;;;;;;;17.33;75.94;99201.11;106026;1280;24423;-72
2022/08/07 06:30:55;;;;;;;7.20;2.70;;;;;;;17.34;75.57;99198.15;105771;1281;24392;-75
2022/08/07 06:33:23;;;;;;;3.90;2.10;;;;;;;17.32;74.20;99199.86;105859;1280;137708;-75
2022/08/07 06:35:50;;;;;;;1.80;0.90;;;;;;;17.28;72.75;99201.59;105607;1283;22567;-73
2022/08/07 06:38:18;;;;;;;4.60;2.20;;;;;;;17.29;71.75;99207.70;105900;1281;138116;-74
2022/08/07 06:40:50;;;;;;;4.60;1.80;;;;;;;17.31;71.48;99210.09;105734;1284;23025;-76
2022/08/07 06:43:34;;;;;;;4.90;2.50;;;;;;;17.32;72.01;99211.69;105422;1281;137853;-75
2022/08/07 06:46:07;;;;;;;4.30;2.90;;;;;;;17.28;72.73;99211.50;105709;1281;22555;-76
2022/08/07 06:48:36;;;;;;;3.80;3.10;;;;;;;17.28;73.18;99211.60;105917;1280;24421;-76
2022/08/07 06:51:08;;;;;;;5.10;3.80;;;;;;;17.29;73.67;99211.29;105914;1281;137829;-76
2022/08/07 06:53:51;;;;;;;5.20;3.50;;;;;;;17.31;74.01;99212.63;105843;1281;25719;-76
2022/08/07 06:56:38;;;;;;;;;;;;;;;17.30;74.37;99216.85;106058;1280;137505;-75
2022/08/07 06:59:08;;;;;;;4.00;3.40;;;;;;;17.27;74.31;99216.41;105485;1281;23188;-77
2022/08/07 07:01:37;;;;;;;5.00;3.10;;;;;;;17.26;74.45;99216.24;105701;1282;137742;-75
2022/08/07 07:04:05;;;;;;;5.30;3.20;;;;;;;17.31;74.48;99218.79;105595;1281;22717;-74
2022/08/07 07:06:32;;;;;;;6.20;3.10;;;;;;;17.31;74.04;99218.84;105854;1281;22539;-75
2022/08/07 07:09:19;;;;;;;3.10;2.60;;;;;;;17.32;74.03;99217.80;105711;1281;137514;-75
2022/08/07 07:12:03;;;;;;;4.80;3.30;;;;;;;17.35;73.97;99217.86;106203;1280;24214;-74
2022/08/07 07:14:38;;;;;;;3.40;2.80;;;;;;;17.42;73.95;99216.89;106175;1279;138334;-74
2022/08/07 07:17:12;;;;;;;6.10;3.50;;;;;;;17.48;74.04;99217.67;105758;1281;22776;-75
2022/08/07 07:19:58;;;;;;;5.10;3.20;;;;;;;17.56;73.75;99215.50;105685;1281;137843;-74
2022/08/07 07:22:28;;;;;;;4.50;2.50;;;;;;;17.64;73.36;99210.55;105627;1281;23184;-74
2022/08/07 07:24:56;;;;;;;3.80;2.90;;;;;;;17.74;72.99;99214.04;106050;1281;22791;-74
2022/08/07 07:27:28;;;;;;;6.60;2.70;;;;;;;17.86;72.70;99212.63;106276;1281;137414;-74
2022/08/07 07:30:11;;;;;;;4.90;2.60;;;;;;;17.97;72.19;99211.05;105882;1281;25627;-73
2022/08/07 07:32:41;;;;;;;3.40;2.70;;;;;;;18.11;72.04;99207.13;106096;1281;137942;-74
2022/08/07 07:35:11;;;;;;;4.90;2.90;;;;;;;18.25;71.24;99211.24;106099;1280;23278;-74
2022/08/07 07:37:41;;;;;;;3.00;1.80;;;;;;;18.37;70.82;99208.75;105636;1281;137785;-76
2022/08/07 07:40:15;;;;;;;3.40;1.70;;;;;;;18.47;69.51;99210.52;105478;1282;24354;-74
2022/08/07 07:42:49;;;;;;;3.10;1.70;;;;;;;18.58;69.05;99211.09;105807;1281;22607;-74
2022/08/07 07:45:19;;;;;;;2.60;1.40;;;;;;;18.69;68.41;99209.20;105511;1281;137941;-74
2022/08/07 07:48:02;;;;;;;5.60;1.60;;;;;;;18.78;67.30;99214.02;105997;1281;22561;-74
2022/08/07 07:50:31;;;;;;;1.80;1.50;;;;;;;18.87;66.87;99215.30;105885;1280;137777;-75
2022/08/07 07:52:59;;;;;;;2.70;1.70;;;;;;;18.98;65.99;99213.70;105768;1280;22632;-74
2022/08/07 07:55:41;;;;;;;4.50;1.50;;;;;;;19.06;65.64;99216.21;105724;1281;137697;-75
2022/08/07 07:58:09;;;;;;;3.30;1.50;;;;;;;19.16;65.94;99215.13;106049;1281;22605;-74
2022/08/07 08:00:38;;;;;;;2.20;1.50;;;;;;;19.27;65.61;99213.30;106281;1280;22935;-75
2022/08/07 08:03:08;;;;;;;5.90;1.50;;;;;;;19.36;64.87;99218.30;105487;1281;137378;-76
2022/08/07 08:05:38;;;;;;;3.50;1.30;;;;;;;19.40;63.17;99209.43;105685;1281;22562;-75
2022/08/07 08:08:20;;;;;;;1.90;1.10;;;;;;;19.41;62.43;99213.19;105894;1280;137814;-74
2022/08/07 08:10:48;;;;;;;1.30;1.20;;;;;;;19.43;62.56;99211.19;106103;1279;22642;-74
2022/08/07 08:13:16;;;;;;;3.00;1.30;;;;;;;19.45;62.64;99215.20;106074;1280;25376;-74
2022/08/07 08:15:46;;;;;;;2.80;1.10;;;;;;;19.50;61.91;99216.22;106244;1281;137511;-74
2022/08/07 08:18:16;;;;;;;5.60;1.50;;;;;;;19.51;61.04;99212.58;105854;1281;26471;-74
2022/08/07 08:21:01;;;;;;;3.90;1.40;;;;;;;19.57;61.40;99211.33;105652;1281;137351;-75
2022/08/07 08:29:11;;;;;;;5.00;1.40;;;;;;;19.88;61.69;99201.23;105760;1280;22810;-74
2022/08/07 08:31:39;;;;;;;4.20;1.40;;;;;;;20.05;61.28;99198.40;106050;1280;137597;-74
2022/08/07 08:34:08;;;;;;;4.30;1.30;;;;;;;20.24;61.64;99201.88;105793;1280;22644;-73
2022/08/07 08:36:38;;;;;;;3.40;1.30;;;;;;;20.44;61.29;99202.03;105919;1280;24278;-74
2022/08/07 08:39:19;;;;;;;2.90;1.60;;;;;;;20.66;60.74;99200.77;105757;1282;137210;-74
2022/08/07 08:41:52;;;;;;;3.30;1.70;;;;;;;20.84;60.19;99200.57;106612;1283;22560;-74
2022/08/07 08:44:41;;;;;;;2.20;1.50;;;;;;;21.04;59.78;99190.26;106084;1281;137318;-73
2022/08/07 08:47:26;;;;;;;4.60;1.40;;;;;;;21.27;59.04;99194.34;105915;1279;22560;-73
2022/08/07 08:50:09;;;;;;;1.90;1.30;;;;;;;21.49;58.51;99198.76;105630;1281;138008;-74
2022/08/07 08:52:50;;;;;;;4.10;1.60;;;;;;;21.68;57.89;99197.66;105991;1279;23367;-74
2022/08/07 08:55:35;;;;;;;3.50;1.30;;;;;;;21.86;57.43;99198.27;105923;1280;22550;-74
2022/08/07 08:58:16;;;;;;;2.60;1.40;;;;;;;21.99;56.53;99193.10;106016;1280;30685;-74
2022/08/07 09:01:21;;;;;;;3.90;1.30;;;;;;;22.02;56.14;99196.45;105844;1281;22827;-74
2022/08/07 09:03:55;;;;;;;2.60;1.20;;;;;;;21.95;55.66;99193.79;105863;1281;138265;-73
2022/08/07 09:06:54;;;;;;;3.10;1.30;;;;;;;21.89;55.96;99191.84;105840;1280;25411;-73
2022/08/07 09:09:46;;;;;;;4.10;1.20;;;;;;;21.78;55.79;99188.85;105795;1280;137189;-73
2022/08/07 09:12:30;;;;;;;3.10;1.30;;;;;;;21.68;55.70;99192.05;106133;1280;25261;-73
2022/08/07 09:15:00;;;;;;;5.10;1.40;;;;;;;21.56;56.04;99195.40;105724;1280;137500;-73
2022/08/07 09:18:08;;;;;;;3.10;1.40;;;;;;;21.39;55.65;99197.65;106028;1281;23461;-74
2022/08/07 09:21:12;;;;;;;4.50;1.40;;;;;;;21.21;55.87;99191.19;106131;1281;137552;-73
2022/08/07 09:24:03;;;;;;;2.30;1.20;;;;;;;21.16;57.07;99193.02;106283;1281;23594;-73
2022/08/07 09:27:02;;;;;;;4.20;1.20;;;;;;;21.18;56.68;99186.19;105809;1281;138980;-73
2022/08/07 09:29:44;;;;;;;2.60;1.30;;;;;;;21.24;57.28;99176.91;106235;1281;22557;-73
2022/08/07 09:32:14;;;;;;;4.90;1.40;;;;;;;21.30;57.10;99175.12;106695;1281;137745;-73
2022/08/07 09:35:22;;;;;;;1.60;1.20;;;;;;;21.31;57.05;99178.44;105958;1281;25268;-72
2022/08/07 09:37:55;;;;;;;1.40;0.90;;;;;;;21.33;56.75;99177.40;105752;1280;137447;-73
2022/08/07 09:40:36;;;;;;;5.40;1.40;;;;;;;21.34;56.71;99169.56;106459;1281;24333;-73
2022/08/07 09:43:26;;;;;;;1.30;1.10;;;;;;;21.36;56.33;99172.48;106452;1281;24332;-73
2022/08/07 09:46:30;;;;;;;2.40;1.10;;;;;;;21.43;55.91;99168.12;106211;1281;137402;-73
2022/08/07 09:49:11;;;;;;;2.00;1.10;;;;;;;21.50;56.13;99167.26;106435;1280;22577;-75
2022/08/07 09:51:57;;;;;;;5.20;1.40;;;;;;;21.57;56.39;99165.39;105981;1281;137444;-73
2022/08/07 09:54:39;;;;;;;3.20;1.30;;;;;;;21.62;55.98;99159.60;106181;1281;24263;-74
2022/08/07 09:57:18;;;;;;;4.00;1.20;;;;;;;21.85;55.50;99157.61;106314;1280;137408;-73
2022/08/07 10:00:13;;;;;;;1.80;1.10;;;;;;;22.24;54.67;99154.35;106719;1281;25625;-74
2022/08/07 10:03:05;;;;;;;3.20;1.10;;;;;;;22.44;54.07;99150.02;106412;1281;137203;-73
2022/08/07 10:05:54;;;;;;;2.80;1.00;;;;;;;22.42;53.25;99148.39;106132;1281;22633;-74
2022/08/07 10:08:49;;;;;;;1.60;0.80;;;;;;;22.34;53.32;99150.36;106316;1281;137455;-73
2022/08/07 10:11:44;;;;;;;4.80;1.20;;;;;;;22.27;52.77;99145.71;106063;1280;23393;-74
2022/08/07 10:14:27;;;;;;;1.50;1.30;;;;;;;22.20;52.81;99143.48;106920;1280;137395;-73
2022/08/07 10:17:38;;;;;;;2.70;1.20;;;;;;;22.13;53.96;99142.34;106415;1281;23358;-73
2022/08/07 10:20:31;;;;;;;2.60;0.90;;;;;;;22.08;53.95;99140.48;106803;1280;137396;-74
2022/08/07 10:23:28;;;;;;;3.20;0.90;;;;;;;22.02;53.98;99143.09;106100;1282;31945;-73
2022/08/07 10:26:15;;;;;;;2.40;0.90;;;;;;;21.94;53.65;99137.69;105982;1281;137809;-73
2022/08/07 10:28:52;;;;;;;2.90;1.00;;;;;;;21.87;53.55;99138.40;106353;1281;22548;-73
2022/08/07 10:31:50;;;;;;;1.20;0.90;;;;;;;21.79;53.59;99130.77;106339;1281;138012;-73
2022/08/07 10:34:48;;;;;;;2.00;1.00;;;;;;;21.73;54.18;99131.32;106253;1281;23050;-73
2022/08/07 10:37:41;;;;;;;3.10;0.90;;;;;;;21.77;54.07;99123.42;106027;1281;25400;-72
2022/08/07 10:40:31;;;;;;;4.10;1.30;;;;;;;21.84;53.88;99122.72;106187;1281;22628;-75
2022/08/07 10:43:14;;;;;;;3.00;1.00;;;;;;;21.91;53.70;99119.92;106944;1280;22715;-74
2022/08/07 10:45:57;;;;;;;2.30;0.80;;;;;;;21.94;53.45;99121.86;106142;1280;137129;-73
2022/08/07 10:49:00;;;;;;;4.00;1.10;;;;;;;21.99;53.47;99124.27;105916;1281;24217;-73
2022/08/07 10:52:10;;;;;;;0.80;0.70;;;;;;;21.99;53.04;99116.52;105926;1281;137467;-74
2022/08/07 10:54:45;;;;;;;1.20;0.90;;;;;;;22.02;52.48;99114.69;105781;1280;25323;-73
2022/08/07 10:57:30;;;;;;;4.00;0.90;;;;;;;22.00;50.89;99111.45;106198;1279;137458;-73
2022/08/07 11:00:17;;;;;;;1.80;0.70;;;;;;;22.10;51.20;99113.05;106108;1280;24369;-73
2022/08/07 11:02:59;;;;;;;1.70;0.80;;;;;;;22.37;51.16;99102.85;106014;1280;137478;-74
2022/08/07 11:05:49;;;;;;;2.20;0.90;;;;;;;22.53;50.51;99103.04;105954;1280;24306;-74
2022/08/07 11:09:01;;;;;;;2.70;0.80;;;;;;;22.77;49.39;99105.54;105707;1280;137782;-73
2022/08/07 11:11:48;;;;;;;1.40;0.70;;;;;;;23.00;49.80;99098.10;105804;1279;22688;-74
2022/08/07 11:15:10;;;;;;;1.50;0.70;;;;;;;23.12;49.05;99101.42;106103;1281;137175;-74
2022/08/07 11:17:59;;;;;;;3.40;0.90;;;;;;;23.06;48.45;99097.84;106567;1281;22544;-74
2022/08/07 11:20:36;;;;;;;2.50;0.90;;;;;;;23.02;48.12;99094.17;105734;1281;137822;-73
2022/08/07 11:23:42;;;;;;;4.20;0.90;;;;;;;22.98;47.83;99093.84;106182;1280;22658;-73
2022/08/07 11:26:32;;;;;;;2.70;0.70;;;;;;;22.84;48.28;99090.95;105681;1280;137673;-74
2022/08/07 11:29:39;;;;;;;1.40;0.80;;;;;;;22.80;48.23;99090.21;105878;1280;22704;-74
2022/08/07 11:32:29;;;;;;;1.40;0.80;;;;;;;22.83;48.44;99087.27;105606;1280;137541;-74
2022/08/07 11:35:01;;;;;;;4.70;0.90;;;;;;;22.89;48.35;99087.34;105695;1281;24326;-74
2022/08/07 11:37:49;;;;;;;2.70;0.90;;;;;;;23.00;48.79;99085.69;105492;1282;137511;-73
2022/08/07 11:40:47;;;;;;;3.00;0.90;;;;;;;23.09;48.14;99082.83;105802;1281;23593;-73
2022/08/07 11:43:47;;;;;;;1.10;0.60;;;;;;;23.17;47.66;99080.47;105956;1280;24120;-74
2022/08/07 11:46:27;;;;;;;2.90;0.70;;;;;;;23.25;47.59;99082.19;106089;1280;22566;-74
2022/08/07 11:49:11;;;;;;;1.60;0.90;;;;;;;23.36;47.91;99071.15;106030;1281;25289;-74
2022/08/07 11:52:02;;;;;;;1.80;0.80;;;;;;;23.45;47.42;99068.92;105898;1280;137191;-74
2022/08/07 11:54:32;;;;;;;2.30;0.90;;;;;;;23.55;47.22;99067.27;105687;1281;24256;-73
2022/08/07 11:57:17;;;;;;;5.60;1.30;;;;;;;23.64;46.14;99067.73;105934;1281;137342;-74
2022/08/07 12:00:12;;;;;;;1.60;0.80;;;;;;;23.66;46.29;99064.04;105914;1282;25357;-74
2022/08/07 12:03:15;;;;;;;2.70;0.80;;;;;;;23.71;45.88;99061.91;105833;1279;137211;-74
2022/08/07 12:06:03;;;;;;;1.70;0.80;;;;;;;23.91;46.28;99056.17;106183;1279;24329;-74
2022/08/07 12:09:08;;;;;;;1.40;0.90;;;;;;;24.51;45.61;99051.44;105602;1281;137552;-74
2022/08/07 12:11:51;;;;;;;1.70;0.90;;;;;;;24.89;44.48;99048.35;106448;1279;25468;-74